createdAt,value
2018-02-22T00:00:01.472Z,1015.85
2018-02-22T00:01:10.668Z,1015.85
2018-02-22T00:02:20.405Z,1015.87
2018-02-22T00:03:30.228Z,1015.86
2018-02-22T00:04:39.590Z,1015.86
2018-02-22T00:05:49.157Z,1015.86
2018-02-22T00:06:58.643Z,1015.83
2018-02-22T00:08:07.646Z,1015.86
2018-02-22T00:09:17.641Z,1015.83
2018-02-22T00:10:27.135Z,1015.83
2018-02-22T00:11:36.859Z,1015.83
2018-02-22T00:12:46.685Z,1015.85
2018-02-22T00:13:56.529Z,1015.84
2018-02-22T00:15:05.796Z,1015.84
2018-02-22T00:16:15.520Z,1015.83
2018-02-22T00:17:25.423Z,1015.83
2018-02-22T00:18:34.895Z,1015.82
2018-02-22T00:19:44.391Z,1015.8
2018-02-22T00:20:53.312Z,1015.79
2018-02-22T00:22:03.101Z,1015.76
2018-02-22T00:23:12.289Z,1015.76
2018-02-22T00:24:22.013Z,1015.82
2018-02-22T00:25:32.111Z,1015.77
2018-02-22T00:26:41.730Z,1015.77
2018-02-22T00:27:51.848Z,1015.75
2018-02-22T00:29:01.627Z,1015.7
2018-02-22T00:30:11.141Z,1015.68
2018-02-22T00:31:20.689Z,1015.66
2018-02-22T00:32:30.729Z,1015.63
2018-02-22T00:33:40.298Z,1015.64
2018-02-22T00:34:50.115Z,1015.62
2018-02-22T00:35:59.836Z,1015.6
2018-02-22T00:37:10.050Z,1015.64
2018-02-22T00:38:19.352Z,1015.59
2018-02-22T00:39:29.081Z,1015.65
2018-02-22T00:40:39.180Z,1015.62
2018-02-22T00:41:49.029Z,1015.66
2018-02-22T00:42:58.820Z,1015.63
2018-02-22T00:44:08.711Z,1015.63
2018-02-22T00:45:18.603Z,1015.58
2018-02-22T00:46:28.385Z,1015.62
2018-02-22T00:47:38.571Z,1015.64
2018-02-22T00:48:48.088Z,1015.6
2018-02-22T00:49:58.078Z,1015.6
2018-02-22T00:51:07.586Z,1015.68
2018-02-22T00:52:17.574Z,1015.62
2018-02-22T00:53:27.293Z,1015.64
2018-02-22T00:54:37.009Z,1015.57
2018-02-22T00:55:46.202Z,1015.59
2018-02-22T00:56:55.948Z,1015.61
2018-02-22T00:58:05.417Z,1015.52
2018-02-22T00:59:15.163Z,1015.55
2018-02-22T01:00:24.714Z,1015.56
2018-02-22T01:01:34.191Z,1015.61
2018-02-22T01:02:43.910Z,1015.58
2018-02-22T01:03:53.728Z,1015.58
2018-02-22T01:05:03.729Z,1015.57
2018-02-22T01:06:13.537Z,1015.55
2018-02-22T01:07:23.025Z,1015.52
2018-02-22T01:08:33.011Z,1015.59
2018-02-22T01:09:42.247Z,1015.64
2018-02-22T01:10:51.763Z,1015.61
2018-02-22T01:12:01.781Z,1015.63
2018-02-22T01:13:11.791Z,1015.58
2018-02-22T01:14:21.262Z,1015.62
2018-02-22T01:15:31.248Z,1015.61
2018-02-22T01:16:40.441Z,1015.65
2018-02-22T01:17:50.450Z,1015.65
2018-02-22T01:18:59.908Z,1015.65
2018-02-22T01:20:09.908Z,1015.64
2018-02-22T01:21:19.368Z,1015.65
2018-02-22T01:22:28.842Z,1015.68
2018-02-22T01:23:38.570Z,1015.71
2018-02-22T01:24:48.668Z,1015.66
2018-02-22T01:25:58.407Z,1015.68
2018-02-22T01:27:07.857Z,1015.7
2018-02-22T01:28:17.606Z,1015.71
2018-02-22T01:29:27.727Z,1015.65
2018-02-22T01:30:37.448Z,1015.63
2018-02-22T01:31:47.166Z,1015.68
2018-02-22T01:32:56.888Z,1015.64
2018-02-22T01:34:06.624Z,1015.66
2018-02-22T01:35:16.372Z,1015.65
2018-02-22T01:36:26.355Z,1015.67
2018-02-22T01:37:36.358Z,1015.66
2018-02-22T01:38:46.079Z,1015.64
2018-02-22T01:39:55.808Z,1015.61
2018-02-22T01:41:05.103Z,1015.63
2018-02-22T01:42:15.106Z,1015.61
2018-02-22T01:43:25.094Z,1015.6
2018-02-22T01:44:35.204Z,1015.57
2018-02-22T01:45:44.927Z,1015.54
2018-02-22T01:46:54.392Z,1015.54
2018-02-22T01:48:04.115Z,1015.53
2018-02-22T01:49:13.568Z,1015.52
2018-02-22T01:50:23.281Z,1015.51
2018-02-22T01:51:33.066Z,1015.49
2018-02-22T01:52:42.540Z,1015.5
2018-02-22T01:53:52.283Z,1015.44
2018-02-22T01:55:02.000Z,1015.46
2018-02-22T01:56:11.735Z,1015.46
2018-02-22T01:57:21.183Z,1015.45
2018-02-22T01:58:30.918Z,1015.45
2018-02-22T01:59:40.146Z,1015.44
2018-02-22T02:00:49.664Z,1015.45
2018-02-22T02:01:59.453Z,1015.42
2018-02-22T02:03:09.176Z,1015.4
2018-02-22T02:04:18.901Z,1015.43
2018-02-22T02:05:28.897Z,1015.39
2018-02-22T02:06:38.346Z,1015.38
2018-02-22T02:07:47.579Z,1015.39
2018-02-22T02:08:56.504Z,1015.39
2018-02-22T02:10:06.223Z,1015.34
2018-02-22T02:11:16.212Z,1015.37
2018-02-22T02:12:25.693Z,1015.39
2018-02-22T02:13:34.878Z,1015.37
2018-02-22T02:14:44.875Z,1015.39
2018-02-22T02:15:54.583Z,1015.39
2018-02-22T02:17:04.606Z,1015.39
2018-02-22T02:18:14.349Z,1015.41
2018-02-22T02:19:24.100Z,1015.4
2018-02-22T02:20:33.846Z,1015.42
2018-02-22T02:21:43.768Z,1015.4
2018-02-22T02:22:53.250Z,1015.41
2018-02-22T02:24:02.981Z,1015.36
2018-02-22T02:25:12.711Z,1015.4
2018-02-22T02:26:22.171Z,1015.42
2018-02-22T02:27:31.887Z,1015.38
2018-02-22T02:28:41.634Z,1015.37
2018-02-22T02:29:51.353Z,1015.4
2018-02-22T02:31:01.076Z,1015.41
2018-02-22T02:32:10.883Z,1015.37
2018-02-22T02:33:20.964Z,1015.38
2018-02-22T02:34:30.718Z,1015.37
2018-02-22T02:35:40.488Z,1015.41
2018-02-22T02:36:50.231Z,1015.35
2018-02-22T02:38:00.046Z,1015.38
2018-02-22T02:39:10.124Z,1015.38
2018-02-22T02:40:19.593Z,1015.34
2018-02-22T02:41:29.362Z,1015.31
2018-02-22T02:42:38.826Z,1015.33
2018-02-22T02:43:48.577Z,1015.33
2018-02-22T02:44:58.577Z,1015.33
2018-02-22T02:46:08.308Z,1015.31
2018-02-22T02:47:18.058Z,1015.35
2018-02-22T02:48:27.547Z,1015.33
2018-02-22T02:49:37.363Z,1015.31
2018-02-22T02:50:47.074Z,1015.3
2018-02-22T02:51:57.080Z,1015.31
2018-02-22T02:53:07.103Z,1015.31
2018-02-22T02:54:17.158Z,1015.28
2018-02-22T02:55:27.189Z,1015.27
2018-02-22T02:56:36.920Z,1015.3
2018-02-22T02:57:46.380Z,1015.27
2018-02-22T02:58:56.115Z,1015.27
2018-02-22T03:00:06.123Z,1015.27
2018-02-22T03:01:16.465Z,1015.26
2018-02-22T03:02:26.456Z,1015.25
2018-02-22T03:03:36.452Z,1015.23
2018-02-22T03:04:46.176Z,1015.2
2018-02-22T03:05:56.196Z,1015.22
2018-02-22T03:07:05.666Z,1015.21
2018-02-22T03:08:15.382Z,1015.21
2018-02-22T03:09:25.368Z,1015.21
2018-02-22T03:10:34.814Z,1015.21
2018-02-22T03:11:43.492Z,1015.25
2018-02-22T03:12:53.514Z,1015.28
2018-02-22T03:14:03.238Z,1015.24
2018-02-22T03:15:13.262Z,1015.21
2018-02-22T03:16:22.710Z,1015.21
2018-02-22T03:17:32.175Z,1015.22
2018-02-22T03:18:41.922Z,1015.24
2018-02-22T03:19:51.384Z,1015.21
2018-02-22T03:21:01.105Z,1015.23
2018-02-22T03:22:10.596Z,1015.22
2018-02-22T03:23:20.381Z,1015.23
2018-02-22T03:24:29.865Z,1015.24
2018-02-22T03:25:39.629Z,1015.25
2018-02-22T03:26:49.365Z,1015.25
2018-02-22T03:27:59.354Z,1015.24
2018-02-22T03:29:09.366Z,1015.21
2018-02-22T03:30:19.381Z,1015.2
2018-02-22T03:31:29.189Z,1015.21
2018-02-22T03:32:39.225Z,1015.24
2018-02-22T03:33:48.994Z,1015.17
2018-02-22T03:34:58.784Z,1015.18
2018-02-22T03:36:08.501Z,1015.18
2018-02-22T03:37:18.277Z,1015.14
2018-02-22T03:38:27.988Z,1015.16
2018-02-22T03:39:37.443Z,1015.17
2018-02-22T03:40:47.153Z,1015.18
2018-02-22T03:41:56.606Z,1015.18
2018-02-22T03:43:06.588Z,1015.17
2018-02-22T03:44:16.304Z,1015.18
2018-02-22T03:45:26.035Z,1015.18
2018-02-22T03:46:36.017Z,1015.19
2018-02-22T03:47:45.773Z,1015.21
2018-02-22T03:48:55.542Z,1015.17
2018-02-22T03:50:05.341Z,1015.16
2018-02-22T03:51:15.065Z,1015.21
2018-02-22T03:52:24.784Z,1015.21
2018-02-22T03:53:34.282Z,1015.21
2018-02-22T03:54:44.074Z,1015.28
2018-02-22T03:55:54.110Z,1015.24
2018-02-22T03:57:03.304Z,1015.25
2018-02-22T03:58:13.295Z,1015.21
2018-02-22T03:59:23.027Z,1015.26
2018-02-22T04:00:32.748Z,1015.31
2018-02-22T04:01:42.388Z,1015.29
2018-02-22T04:02:51.862Z,1015.31
2018-02-22T04:04:01.584Z,1015.32
2018-02-22T04:05:11.041Z,1015.27
2018-02-22T04:06:20.768Z,1015.27
2018-02-22T04:07:30.496Z,1015.28
2018-02-22T04:08:39.951Z,1015.3
2018-02-22T04:09:49.472Z,1015.31
2018-02-22T04:10:59.197Z,1015.34
2018-02-22T04:12:09.205Z,1015.32
2018-02-22T04:13:18.657Z,1015.34
2018-02-22T04:14:28.375Z,1015.33
2018-02-22T04:15:37.838Z,1015.35
2018-02-22T04:16:47.560Z,1015.32
2018-02-22T04:17:57.010Z,1015.32
2018-02-22T04:19:06.467Z,1015.34
2018-02-22T04:20:16.470Z,1015.3
2018-02-22T04:21:26.447Z,1015.3
2018-02-22T04:22:36.429Z,1015.36
2018-02-22T04:23:46.313Z,1015.33
2018-02-22T04:24:56.027Z,1015.3
2018-02-22T04:26:05.475Z,1015.35
2018-02-22T04:27:14.923Z,1015.35
2018-02-22T04:28:24.641Z,1015.37
2018-02-22T04:29:34.096Z,1015.35
2018-02-22T04:30:43.811Z,1015.35
2018-02-22T04:31:53.528Z,1015.37
2018-02-22T04:33:03.239Z,1015.39
2018-02-22T04:34:13.226Z,1015.42
2018-02-22T04:35:23.211Z,1015.39
2018-02-22T04:36:32.436Z,1015.37
2018-02-22T04:37:41.472Z,1015.38
2018-02-22T04:38:50.927Z,1015.38
2018-02-22T04:40:00.370Z,1015.35
2018-02-22T04:41:10.087Z,1015.34
2018-02-22T04:42:19.531Z,1015.35
2018-02-22T04:43:29.503Z,1015.35
2018-02-22T04:44:39.216Z,1015.32
2018-02-22T04:45:48.665Z,1015.34
2018-02-22T04:46:58.638Z,1015.36
2018-02-22T04:48:08.355Z,1015.3
2018-02-22T04:49:18.081Z,1015.34
2018-02-22T04:50:27.543Z,1015.34
2018-02-22T04:51:37.593Z,1015.36
2018-02-22T04:52:47.309Z,1015.34
2018-02-22T04:53:56.497Z,1015.38
2018-02-22T04:55:06.209Z,1015.37
2018-02-22T04:56:15.928Z,1015.4
2018-02-22T04:57:25.644Z,1015.37
2018-02-22T04:58:35.642Z,1015.39
2018-02-22T04:59:45.100Z,1015.41
2018-02-22T05:00:54.289Z,1015.42
2018-02-22T05:02:04.265Z,1015.39
2018-02-22T05:03:13.752Z,1015.39
2018-02-22T05:04:23.469Z,1015.45
2018-02-22T05:05:33.186Z,1015.44
2018-02-22T05:06:42.902Z,1015.4
2018-02-22T05:07:52.353Z,1015.44
2018-02-22T05:09:02.080Z,1015.43
2018-02-22T05:10:11.793Z,1015.44
2018-02-22T05:11:21.518Z,1015.44
2018-02-22T05:12:31.238Z,1015.4
2018-02-22T05:13:40.692Z,1015.44
2018-02-22T05:14:49.874Z,1015.41
2018-02-22T05:15:59.077Z,1015.49
2018-02-22T05:17:08.525Z,1015.47
2018-02-22T05:18:18.242Z,1015.46
2018-02-22T05:19:28.221Z,1015.49
2018-02-22T05:20:37.945Z,1015.51
2018-02-22T05:21:47.934Z,1015.46
2018-02-22T05:22:57.401Z,1015.51
2018-02-22T05:24:07.131Z,1015.51
2018-02-22T05:25:16.850Z,1015.54
2018-02-22T05:26:26.563Z,1015.58
2018-02-22T05:27:36.014Z,1015.56
2018-02-22T05:28:45.999Z,1015.55
2018-02-22T05:29:55.722Z,1015.54
2018-02-22T05:31:05.169Z,1015.55
2018-02-22T05:32:14.355Z,1015.56
2018-02-22T05:33:24.091Z,1015.53
2018-02-22T05:34:33.538Z,1015.58
2018-02-22T05:35:42.985Z,1015.58
2018-02-22T05:36:52.696Z,1015.6
2018-02-22T05:38:02.885Z,1015.62
2018-02-22T05:39:12.600Z,1015.65
2018-02-22T05:40:22.585Z,1015.58
2018-02-22T05:41:32.300Z,1015.59
2018-02-22T05:42:42.285Z,1015.6
2018-02-22T05:43:52.280Z,1015.57
2018-02-22T05:45:01.989Z,1015.6
2018-02-22T05:46:11.984Z,1015.6
2018-02-22T05:47:21.440Z,1015.6
2018-02-22T05:48:31.153Z,1015.58
2018-02-22T05:49:40.600Z,1015.62
2018-02-22T05:50:50.319Z,1015.65
2018-02-22T05:52:00.297Z,1015.64
2018-02-22T05:53:09.777Z,1015.67
2018-02-22T05:54:19.244Z,1015.65
2018-02-22T05:55:29.226Z,1015.65
2018-02-22T05:56:38.414Z,1015.68
2018-02-22T05:57:48.127Z,1015.67
2018-02-22T05:58:57.844Z,1015.69
2018-02-22T06:00:07.818Z,1015.66
2018-02-22T06:01:17.280Z,1015.71
2018-02-22T06:02:26.461Z,1015.7
2018-02-22T06:03:36.560Z,1015.71
2018-02-22T06:04:46.302Z,1015.71
2018-02-22T06:05:55.756Z,1015.7
2018-02-22T06:07:05.209Z,1015.7
2018-02-22T06:08:15.001Z,1015.67
2018-02-22T06:09:25.035Z,1015.67
2018-02-22T06:10:34.530Z,1015.68
2018-02-22T06:11:44.519Z,1015.66
2018-02-22T06:12:53.975Z,1015.69
2018-02-22T06:14:02.894Z,1015.66
2018-02-22T06:15:12.079Z,1015.7
2018-02-22T06:16:21.534Z,1015.7
2018-02-22T06:17:30.990Z,1015.68
2018-02-22T06:18:40.445Z,1015.69
2018-02-22T06:19:49.898Z,1015.72
2018-02-22T06:20:59.435Z,1015.75
2018-02-22T06:22:09.224Z,1015.72
2018-02-22T06:23:19.262Z,1015.77
2018-02-22T06:24:28.739Z,1015.76
2018-02-22T06:25:38.189Z,1015.79
2018-02-22T06:26:47.398Z,1015.78
2018-02-22T06:27:56.864Z,1015.79
2018-02-22T06:29:06.334Z,1015.76
2018-02-22T06:30:15.837Z,1015.78
2018-02-22T06:31:25.553Z,1015.81
2018-02-22T06:32:35.267Z,1015.8
2018-02-22T06:33:45.051Z,1015.78
2018-02-22T06:34:54.796Z,1015.79
2018-02-22T06:36:04.525Z,1015.8
2018-02-22T06:37:14.241Z,1015.82
2018-02-22T06:38:23.751Z,1015.81
2018-02-22T06:39:33.497Z,1015.86
2018-02-22T06:40:43.000Z,1015.86
2018-02-22T06:41:52.457Z,1015.9
2018-02-22T06:43:01.948Z,1015.87
2018-02-22T06:44:11.742Z,1015.93
2018-02-22T06:45:21.736Z,1015.96
2018-02-22T06:46:31.190Z,1015.96
2018-02-22T06:47:40.907Z,1015.88
2018-02-22T06:48:50.666Z,1015.87
2018-02-22T06:50:00.406Z,1015.92
2018-02-22T06:51:10.161Z,1015.92
2018-02-22T06:52:19.630Z,1015.95
2018-02-22T06:53:29.437Z,1015.94
2018-02-22T06:54:38.629Z,1015.9
2018-02-22T06:55:48.357Z,1015.88
2018-02-22T06:56:58.108Z,1015.89
2018-02-22T06:58:07.628Z,1015.89
2018-02-22T06:59:17.072Z,1015.87
2018-02-22T07:00:26.534Z,1015.9
2018-02-22T07:01:36.282Z,1015.9
2018-02-22T07:02:45.804Z,1015.87
2018-02-22T07:03:55.784Z,1015.88
2018-02-22T07:05:05.244Z,1015.84
2018-02-22T07:06:15.226Z,1015.87
2018-02-22T07:07:24.943Z,1015.92
2018-02-22T07:08:34.939Z,1015.89
2018-02-22T07:09:44.404Z,1015.95
2018-02-22T07:10:54.122Z,1015.9
2018-02-22T07:12:03.832Z,1015.94
2018-02-22T07:13:13.547Z,1015.87
2018-02-22T07:14:23.537Z,1015.95
2018-02-22T07:15:33.360Z,1015.95
2018-02-22T07:16:43.099Z,1015.91
2018-02-22T07:17:53.152Z,1015.9
2018-02-22T07:19:02.404Z,1015.94
2018-02-22T07:20:12.432Z,1015.94
2018-02-22T07:21:22.219Z,1015.95
2018-02-22T07:22:31.719Z,1016
2018-02-22T07:23:41.784Z,1016
2018-02-22T07:24:51.503Z,1015.99
2018-02-22T07:26:01.281Z,1016.01
2018-02-22T07:27:11.280Z,1015.98
2018-02-22T07:28:20.743Z,1015.99
2018-02-22T07:29:29.682Z,1015.98
2018-02-22T07:30:39.133Z,1016
2018-02-22T07:31:49.121Z,1016.01
2018-02-22T07:32:58.840Z,1016.01
2018-02-22T07:34:08.558Z,1015.95
2018-02-22T07:35:18.406Z,1016
2018-02-22T07:36:27.873Z,1015.98
2018-02-22T07:37:37.609Z,1015.96
2018-02-22T07:38:47.411Z,1016.01
2018-02-22T07:39:56.700Z,1015.93
2018-02-22T07:41:06.416Z,1015.98
2018-02-22T07:42:15.944Z,1015.95
2018-02-22T07:43:25.923Z,1016.01
2018-02-22T07:44:35.376Z,1015.99
2018-02-22T07:45:45.121Z,1015.96
2018-02-22T07:46:54.843Z,1016
2018-02-22T07:48:04.561Z,1016.02
2018-02-22T07:49:14.278Z,1015.99
2018-02-22T07:50:23.987Z,1015.99
2018-02-22T07:51:33.967Z,1015.98
2018-02-22T07:52:43.450Z,1015.97
2018-02-22T07:53:52.372Z,1016.03
2018-02-22T07:55:01.027Z,1016.04
2018-02-22T07:56:10.750Z,1016.04
2018-02-22T07:57:20.472Z,1016.07
2018-02-22T07:58:29.928Z,1016.08
2018-02-22T07:59:39.381Z,1016.05
2018-02-22T08:00:49.367Z,1016.03
2018-02-22T08:01:58.551Z,1016.09
2018-02-22T08:03:08.006Z,1016.06
2018-02-22T08:04:17.727Z,1016.09
2018-02-22T08:05:27.722Z,1016.03
2018-02-22T08:06:36.927Z,1016.02
2018-02-22T08:07:46.652Z,1016.03
2018-02-22T08:08:56.374Z,1016.04
2018-02-22T08:10:06.423Z,1016.05
2018-02-22T08:11:16.419Z,1016.03
2018-02-22T08:12:25.605Z,1016.06
2018-02-22T08:13:35.053Z,1016.12
2018-02-22T08:14:44.512Z,1016.07
2018-02-22T08:15:53.957Z,1016.12
2018-02-22T08:17:03.750Z,1016.09
2018-02-22T08:18:13.484Z,1016.09
2018-02-22T08:19:23.473Z,1016.12
2018-02-22T08:20:33.192Z,1016.12
2018-02-22T08:21:42.937Z,1016.04
2018-02-22T08:22:52.921Z,1016.08
2018-02-22T08:24:02.640Z,1016.08
2018-02-22T08:25:12.370Z,1016.11
2018-02-22T08:26:22.135Z,1016.08
2018-02-22T08:27:31.065Z,1016.12
2018-02-22T08:28:41.051Z,1016.12
2018-02-22T08:29:50.776Z,1016.13
2018-02-22T08:31:00.496Z,1016.13
2018-02-22T08:32:10.498Z,1016.14
2018-02-22T08:33:20.227Z,1016.13
2018-02-22T08:34:29.940Z,1016.11
2018-02-22T08:35:39.657Z,1016.12
2018-02-22T08:36:49.104Z,1016.11
2018-02-22T08:37:58.821Z,1016.1
2018-02-22T08:39:07.799Z,1016.06
2018-02-22T08:40:17.560Z,1016.07
2018-02-22T08:41:27.540Z,1016.08
2018-02-22T08:42:37.542Z,1016.1
2018-02-22T08:43:46.834Z,1016.05
2018-02-22T08:44:56.816Z,1016.08
2018-02-22T08:46:06.303Z,1016.09
2018-02-22T08:47:16.026Z,1016.04
2018-02-22T08:48:25.783Z,1016.14
2018-02-22T08:49:35.868Z,1016.14
2018-02-22T08:50:45.587Z,1016.07
2018-02-22T08:51:55.049Z,1016.22
2018-02-22T08:53:05.098Z,1016.11
2018-02-22T08:54:14.555Z,1016.14
2018-02-22T08:55:24.533Z,1016.19
2018-02-22T08:56:33.975Z,1016.18
2018-02-22T08:57:43.428Z,1016.15
2018-02-22T08:58:53.150Z,1016.13
2018-02-22T09:00:03.142Z,1016.11
2018-02-22T09:01:12.855Z,1016.06
2018-02-22T09:02:22.854Z,1016.12
2018-02-22T09:03:32.896Z,1016.11
2018-02-22T09:04:42.342Z,1016.11
2018-02-22T09:05:52.065Z,1016.12
2018-02-22T09:07:02.054Z,1016.11
2018-02-22T09:08:12.072Z,1016.13
2018-02-22T09:09:21.640Z,1016.07
2018-02-22T09:10:31.102Z,1016.05
2018-02-22T09:11:40.866Z,1016.07
2018-02-22T09:12:50.311Z,1016.06
2018-02-22T09:13:59.808Z,1016.03
2018-02-22T09:15:09.799Z,1016.08
2018-02-22T09:16:19.785Z,1016.13
2018-02-22T09:17:29.502Z,1016.05
2018-02-22T09:18:39.488Z,1016.05
2018-02-22T09:19:48.951Z,1016.05
2018-02-22T09:20:58.671Z,1016
2018-02-22T09:22:07.866Z,1015.97
2018-02-22T09:23:17.588Z,1015.99
2018-02-22T09:24:27.303Z,1015.99
2018-02-22T09:25:37.029Z,1015.94
2018-02-22T09:26:46.748Z,1015.99
2018-02-22T09:27:56.457Z,1015.92
2018-02-22T09:29:06.454Z,1015.95
2018-02-22T09:30:16.013Z,1015.9
2018-02-22T09:31:26.002Z,1015.93
2018-02-22T09:32:35.716Z,1015.94
2018-02-22T09:33:44.912Z,1015.93
2018-02-22T09:34:54.632Z,1015.95
2018-02-22T09:36:04.619Z,1015.87
2018-02-22T09:37:14.346Z,1015.9
2018-02-22T09:38:24.114Z,1015.96
2018-02-22T09:39:33.580Z,1015.94
2018-02-22T09:40:43.326Z,1015.9
2018-02-22T09:41:52.777Z,1015.92
2018-02-22T09:43:02.504Z,1015.94
2018-02-22T09:44:11.689Z,1015.98
2018-02-22T09:45:21.594Z,1015.87
2018-02-22T09:46:31.102Z,1015.91
2018-02-22T09:47:40.952Z,1015.91
2018-02-22T09:48:50.990Z,1015.85
2018-02-22T09:50:00.721Z,1015.83
2018-02-22T09:51:10.193Z,1015.88
2018-02-22T09:52:19.963Z,1015.87
2018-02-22T09:53:29.690Z,1015.9
2018-02-22T09:54:39.406Z,1015.86
2018-02-22T09:55:48.869Z,1015.92
2018-02-22T09:56:58.377Z,1015.92
2018-02-22T09:58:07.580Z,1015.91
2018-02-22T09:59:17.036Z,1015.92
2018-02-22T10:00:26.495Z,1015.97
2018-02-22T10:01:36.495Z,1015.94
2018-02-22T10:02:46.218Z,1015.92
2018-02-22T10:03:55.934Z,1015.93
2018-02-22T10:05:05.657Z,1015.95
2018-02-22T10:06:15.697Z,1015.92
2018-02-22T10:07:25.911Z,1015.88
2018-02-22T10:08:35.685Z,1015.94
2018-02-22T10:09:45.668Z,1015.92
2018-02-22T10:10:55.122Z,1015.87
2018-02-22T10:12:05.106Z,1015.94
2018-02-22T10:13:14.650Z,1015.9
2018-02-22T10:14:24.561Z,1015.94
2018-02-22T10:15:34.062Z,1015.9
2018-02-22T10:16:43.521Z,1015.96
2018-02-22T10:17:53.077Z,1015.92
2018-02-22T10:19:02.823Z,1015.9
2018-02-22T10:20:12.616Z,1015.9
2018-02-22T10:21:22.072Z,1015.97
2018-02-22T10:22:31.782Z,1015.92
2018-02-22T10:23:40.972Z,1015.86
2018-02-22T10:24:50.161Z,1015.95
2018-02-22T10:25:59.883Z,1015.92
2018-02-22T10:27:09.384Z,1015.9
2018-02-22T10:28:19.480Z,1015.97
2018-02-22T10:29:29.265Z,1015.99
2018-02-22T10:30:39.080Z,1015.99
2018-02-22T10:31:48.622Z,1015.92
2018-02-22T10:32:58.077Z,1015.9
2018-02-22T10:34:08.336Z,1016.06
2018-02-22T10:35:18.174Z,1015.96
2018-02-22T10:36:27.702Z,1015.9
2018-02-22T10:37:37.166Z,1015.91
2018-02-22T10:38:47.155Z,1015.91
2018-02-22T10:39:57.134Z,1015.91
2018-02-22T10:41:06.863Z,1015.81
2018-02-22T10:42:16.337Z,1015.79
2018-02-22T10:43:25.824Z,1015.74
2018-02-22T10:44:35.379Z,1015.81
2018-02-22T10:45:44.941Z,1015.8
2018-02-22T10:46:54.144Z,1015.8
2018-02-22T10:48:03.341Z,1015.78
2018-02-22T10:49:12.857Z,1015.79
2018-02-22T10:50:23.004Z,1015.76
2018-02-22T10:51:33.003Z,1015.7
2018-02-22T10:52:42.750Z,1015.69
2018-02-22T10:53:52.221Z,1015.73
2018-02-22T10:55:01.962Z,1015.74
2018-02-22T10:56:11.691Z,1015.66
2018-02-22T10:57:20.918Z,1015.75
2018-02-22T10:58:30.704Z,1015.71
2018-02-22T10:59:40.171Z,1015.73
2018-02-22T11:00:49.363Z,1015.66
2018-02-22T11:01:58.827Z,1015.7
2018-02-22T11:03:08.834Z,1015.64
2018-02-22T11:04:18.310Z,1015.68
2018-02-22T11:05:28.302Z,1015.66
2018-02-22T11:06:37.769Z,1015.69
2018-02-22T11:07:47.228Z,1015.64
2018-02-22T11:08:56.973Z,1015.67
2018-02-22T11:10:06.974Z,1015.59
2018-02-22T11:11:16.961Z,1015.61
2018-02-22T11:12:26.154Z,1015.63
2018-02-22T11:13:35.957Z,1015.57
2018-02-22T11:14:45.958Z,1015.62
2018-02-22T11:15:55.407Z,1015.55
2018-02-22T11:17:05.138Z,1015.65
2018-02-22T11:18:15.063Z,1015.55
2018-02-22T11:19:24.266Z,1015.65
2018-02-22T11:20:33.758Z,1015.64
2018-02-22T11:21:42.945Z,1015.66
2018-02-22T11:22:52.472Z,1015.59
2018-02-22T11:24:02.200Z,1015.63
2018-02-22T11:25:11.921Z,1015.55
2018-02-22T11:26:21.643Z,1015.57
2018-02-22T11:27:31.101Z,1015.53
2018-02-22T11:28:40.282Z,1015.53
2018-02-22T11:29:49.746Z,1015.62
2018-02-22T11:30:59.198Z,1015.61
2018-02-22T11:32:08.912Z,1015.53
2018-02-22T11:33:18.633Z,1015.51
2018-02-22T11:34:28.202Z,1015.49
2018-02-22T11:35:37.660Z,1015.49
2018-02-22T11:36:47.640Z,1015.57
2018-02-22T11:37:57.628Z,1015.43
2018-02-22T11:39:07.351Z,1015.46
2018-02-22T11:40:17.345Z,1015.52
2018-02-22T11:41:27.386Z,1015.48
2018-02-22T11:42:37.158Z,1015.53
2018-02-22T11:43:46.617Z,1015.42
2018-02-22T11:44:56.074Z,1015.51
2018-02-22T11:46:06.102Z,1015.36
2018-02-22T11:47:16.099Z,1015.5
2018-02-22T11:48:26.088Z,1015.51
2018-02-22T11:49:36.078Z,1015.47
2018-02-22T11:50:45.531Z,1015.5
2018-02-22T11:51:54.724Z,1015.46
2018-02-22T11:53:04.747Z,1015.37
2018-02-22T11:54:14.741Z,1015.42
2018-02-22T11:55:24.728Z,1015.36
2018-02-22T11:56:33.917Z,1015.42
2018-02-22T11:57:43.372Z,1015.35
2018-02-22T11:58:52.835Z,1015.39
2018-02-22T12:00:02.290Z,1015.31
2018-02-22T12:01:12.277Z,1015.24
2018-02-22T12:02:21.992Z,1015.23
2018-02-22T12:03:31.710Z,1015.29
2018-02-22T12:04:40.903Z,1015.35
2018-02-22T12:05:50.629Z,1015.24
2018-02-22T12:07:00.090Z,1015.21
2018-02-22T12:08:10.095Z,1015.21
2018-02-22T12:09:19.556Z,1015.21
2018-02-22T12:10:29.306Z,1015.22
2018-02-22T12:11:39.029Z,1015.19
2018-02-22T12:12:48.228Z,1015.17
2018-02-22T12:13:57.957Z,1015.13
2018-02-22T12:15:07.717Z,1015.16
2018-02-22T12:16:17.443Z,1015.14
2018-02-22T12:17:26.986Z,1015.14
2018-02-22T12:18:36.787Z,1015.12
2018-02-22T12:19:46.505Z,1015.06
2018-02-22T12:20:55.702Z,1015.14
2018-02-22T12:22:05.428Z,1015.18
2018-02-22T12:23:15.156Z,1015.06
2018-02-22T12:24:24.687Z,1015.06
2018-02-22T12:25:34.789Z,1015.02
2018-02-22T12:26:44.523Z,1015
2018-02-22T12:27:54.250Z,1014.99
2018-02-22T12:29:03.705Z,1014.99
2018-02-22T12:30:13.717Z,1014.94
2018-02-22T12:31:23.771Z,1014.97
2018-02-22T12:32:33.523Z,1015.01
2018-02-22T12:33:43.535Z,1014.91
2018-02-22T12:34:52.472Z,1014.94
2018-02-22T12:36:02.473Z,1014.89
2018-02-22T12:37:12.306Z,1014.93
2018-02-22T12:38:22.340Z,1014.88
2018-02-22T12:39:31.592Z,1014.9
2018-02-22T12:40:41.652Z,1014.92
2018-02-22T12:41:50.841Z,1014.9
2018-02-22T12:43:00.568Z,1014.81
2018-02-22T12:44:10.558Z,1014.84
2018-02-22T12:45:20.304Z,1014.88
2018-02-22T12:46:30.091Z,1014.86
2018-02-22T12:47:39.558Z,1014.83
2018-02-22T12:48:49.360Z,1014.78
2018-02-22T12:49:59.105Z,1014.82
2018-02-22T12:51:08.560Z,1014.78
2018-02-22T12:52:18.553Z,1014.82
2018-02-22T12:53:27.785Z,1014.96
2018-02-22T12:54:37.572Z,1014.72
2018-02-22T12:55:48.354Z,1014.83
2018-02-22T12:56:58.110Z,1014.79
2018-02-22T12:58:08.139Z,1014.89
2018-02-22T12:59:18.188Z,1014.7
2018-02-22T13:00:27.996Z,1014.81
2018-02-22T13:01:37.541Z,1014.72
2018-02-22T13:02:47.311Z,1014.78
2018-02-22T13:03:56.814Z,1014.65
2018-02-22T13:05:06.284Z,1014.75
2018-02-22T13:06:15.487Z,1014.71
2018-02-22T13:07:25.227Z,1014.7
2018-02-22T13:08:35.140Z,1014.67
2018-02-22T13:09:44.371Z,1014.66
2018-02-22T13:10:53.833Z,1014.7
2018-02-22T13:12:03.405Z,1014.62
2018-02-22T13:13:12.910Z,1014.62
2018-02-22T13:14:22.664Z,1014.62
2018-02-22T13:15:32.191Z,1014.57
2018-02-22T13:16:42.182Z,1014.53
2018-02-22T13:17:51.666Z,1014.57
2018-02-22T13:19:01.392Z,1014.49
2018-02-22T13:20:10.615Z,1014.55
2018-02-22T13:21:20.390Z,1014.52
2018-02-22T13:22:29.678Z,1014.6
2018-02-22T13:23:39.196Z,1014.58
2018-02-22T13:24:48.918Z,1014.58
2018-02-22T13:25:58.103Z,1014.51
2018-02-22T13:27:07.557Z,1014.55
2018-02-22T13:28:16.779Z,1014.42
2018-02-22T13:29:26.562Z,1014.55
2018-02-22T13:30:36.283Z,1014.41
2018-02-22T13:31:46.284Z,1014.48
2018-02-22T13:32:56.270Z,1014.36
2018-02-22T13:34:05.460Z,1014.34
2018-02-22T13:35:15.191Z,1014.29
2018-02-22T13:36:24.920Z,1014.29
2018-02-22T13:37:34.138Z,1014.28
2018-02-22T13:38:43.334Z,1014.29
2018-02-22T13:39:53.069Z,1014.29
2018-02-22T13:41:02.789Z,1014.29
2018-02-22T13:42:11.984Z,1014.28
2018-02-22T13:43:21.439Z,1014.27
2018-02-22T13:44:30.897Z,1014.22
2018-02-22T13:45:40.408Z,1014.27
2018-02-22T13:46:50.408Z,1014.34
2018-02-22T13:47:59.918Z,1014.21
2018-02-22T13:49:09.925Z,1014.19
2018-02-22T13:50:19.649Z,1014.2
2018-02-22T13:51:29.367Z,1014.2
2018-02-22T13:52:39.397Z,1014.2
2018-02-22T13:53:49.203Z,1014.08
2018-02-22T13:54:58.997Z,1014.16
2018-02-22T13:56:08.456Z,1014.17
2018-02-22T13:57:18.496Z,1014.11
2018-02-22T13:58:27.964Z,1014.07
2018-02-22T13:59:37.982Z,1014.05
2018-02-22T14:00:47.973Z,1014.1
2018-02-22T14:01:57.448Z,1014.12
2018-02-22T14:03:06.928Z,1014.1
2018-02-22T14:04:16.386Z,1014.02
2018-02-22T14:05:25.973Z,1013.94